createdAt,value
2018-04-17T00:01:49.491Z,95.36
2018-04-17T00:04:15.879Z,94.54
2018-04-17T00:06:42.386Z,93.90
2018-04-17T00:09:08.847Z,95.00
2018-04-17T00:11:35.292Z,95.09
2018-04-17T00:14:01.793Z,95.17
2018-04-17T00:16:28.173Z,95.33
2018-04-17T00:18:54.621Z,95.62
2018-04-17T00:21:20.993Z,95.63
2018-04-17T00:23:47.449Z,95.60
2018-04-17T00:26:13.888Z,96.13
2018-04-17T00:28:40.341Z,96.35
2018-04-17T00:31:06.742Z,96.68
2018-04-17T00:33:33.150Z,95.54
2018-04-17T00:35:59.621Z,96.59
2018-04-17T00:38:26.130Z,96.47
2018-04-17T00:40:52.564Z,96.22
2018-04-17T00:43:18.993Z,95.83
2018-04-17T00:45:45.402Z,95.61
2018-04-17T00:48:11.891Z,96.11
2018-04-17T00:50:38.406Z,95.65
2018-04-17T00:53:16.937Z,95.05
2018-04-17T00:55:43.317Z,94.70
2018-04-17T00:58:09.633Z,94.20
2018-04-17T01:00:35.974Z,95.21
2018-04-17T01:03:02.356Z,95.32
2018-04-17T01:05:28.752Z,96.09
2018-04-17T01:07:55.231Z,96.16
2018-04-17T01:10:21.662Z,95.23
2018-04-17T01:12:48.021Z,95.31
2018-04-17T01:15:14.392Z,96.19
2018-04-17T01:17:40.876Z,95.98
2018-04-17T01:20:07.234Z,95.80
2018-04-17T01:22:33.624Z,95.53
2018-04-17T01:25:00.024Z,95.83
2018-04-17T01:27:26.334Z,95.88
2018-04-17T01:29:53.694Z,95.33
2018-04-17T01:32:20.146Z,95.43
2018-04-17T01:34:46.497Z,95.93
2018-04-17T01:37:12.879Z,95.82
2018-04-17T01:39:39.261Z,96.05
2018-04-17T01:42:05.586Z,96.83
2018-04-17T01:44:32.002Z,97.17
2018-04-17T01:46:58.421Z,96.82
2018-04-17T01:49:24.866Z,96.49
2018-04-17T01:51:51.298Z,96.41
2018-04-17T01:54:17.688Z,96.67
2018-04-17T01:56:44.000Z,96.34
2018-04-17T01:59:10.437Z,95.95
2018-04-17T02:01:36.937Z,96.58
2018-04-17T02:04:03.269Z,96.91
2018-04-17T02:06:29.665Z,96.47
2018-04-17T02:08:56.164Z,95.66
2018-04-17T02:11:22.546Z,96.10
2018-04-17T02:13:48.900Z,96.04
2018-04-17T02:16:15.304Z,94.67
2018-04-17T02:18:41.635Z,95.12
2018-04-17T02:21:08.025Z,95.60
2018-04-17T02:23:34.527Z,95.62
2018-04-17T02:26:00.883Z,96.40
2018-04-17T02:28:27.296Z,96.45
2018-04-17T02:30:53.742Z,96.75
2018-04-17T02:33:20.094Z,96.85
2018-04-17T02:35:46.520Z,96.92
2018-04-17T02:38:13.058Z,96.97
2018-04-17T02:40:39.430Z,96.64
2018-04-17T02:43:05.842Z,96.43
2018-04-17T02:45:32.215Z,96.69
2018-04-17T02:47:58.629Z,96.37
2018-04-17T02:50:24.973Z,96.31
2018-04-17T02:52:51.362Z,96.96
2018-04-17T02:55:17.700Z,96.63
2018-04-17T02:57:44.104Z,96.35
2018-04-17T03:00:10.506Z,96.34
2018-04-17T03:02:36.842Z,96.27
2018-04-17T03:05:03.250Z,96.61
2018-04-17T03:07:29.696Z,96.48
2018-04-17T03:09:56.032Z,96.23
2018-04-17T03:12:22.434Z,96.66
2018-04-17T03:14:48.817Z,96.45
2018-04-17T03:17:15.198Z,96.74
2018-04-17T03:19:41.639Z,96.58
2018-04-17T03:22:08.013Z,96.84
2018-04-17T03:24:34.390Z,97.14
2018-04-17T03:27:00.727Z,97.06
2018-04-17T03:29:27.136Z,97.12
2018-04-17T03:31:53.552Z,97.19
2018-04-17T03:34:20.022Z,96.94
2018-04-17T03:36:46.506Z,96.90
2018-04-17T03:39:12.979Z,97.38
2018-04-17T03:41:39.512Z,97.22
2018-04-17T03:44:05.970Z,97.48
2018-04-17T03:46:32.341Z,96.66
2018-04-17T03:48:58.859Z,97.31
2018-04-17T03:51:25.281Z,97.28
2018-04-17T03:53:51.699Z,97.21
2018-04-17T03:56:18.153Z,97.70
2018-04-17T03:58:44.669Z,97.53
2018-04-17T04:01:11.215Z,97.05
2018-04-17T04:03:37.628Z,97.44
2018-04-17T04:06:04.013Z,97.86
2018-04-17T04:08:30.634Z,97.40
2018-04-17T04:10:57.065Z,97.16
2018-04-17T04:13:23.563Z,96.76
2018-04-17T04:15:49.989Z,96.75
2018-04-17T04:18:28.780Z,96.73
2018-04-17T04:21:07.342Z,96.79
2018-04-17T04:23:46.001Z,97.72
2018-04-17T04:26:24.585Z,97.52
2018-04-17T04:28:51.132Z,97.69
2018-04-17T04:31:17.658Z,97.04
2018-04-17T04:33:45.036Z,96.94
2018-04-17T04:36:12.285Z,96.37
2018-04-17T04:38:38.827Z,97.19
2018-04-17T04:41:05.286Z,97.47
2018-04-17T04:43:31.737Z,97.10
2018-04-17T04:45:58.198Z,97.32
2018-04-17T04:48:24.859Z,97.15
2018-04-17T04:50:51.561Z,97.11
2018-04-17T04:53:17.949Z,96.62
2018-04-17T04:55:44.342Z,96.40
2018-04-17T04:58:10.766Z,96.33
2018-04-17T05:00:37.271Z,96.60
2018-04-17T05:03:03.992Z,96.53
2018-04-17T05:05:30.431Z,95.85
2018-04-17T05:07:56.872Z,95.59
2018-04-17T05:10:23.312Z,95.33
2018-04-17T05:12:49.773Z,93.09
2018-04-17T05:15:16.230Z,92.02
2018-04-17T05:17:42.720Z,92.61
2018-04-17T05:20:09.152Z,93.11
2018-04-17T05:22:35.529Z,92.87
2018-04-17T05:25:01.922Z,90.45
2018-04-17T05:27:28.319Z,89.14
2018-04-17T05:29:54.673Z,87.53
2018-04-17T05:32:21.077Z,85.55
2018-04-17T05:34:47.517Z,85.73
2018-04-17T05:37:13.965Z,84.15
2018-04-17T05:39:40.513Z,84.67
2018-04-17T05:42:07.048Z,78.76
2018-04-17T05:44:33.874Z,79.86
2018-04-17T05:47:00.243Z,78.93
2018-04-17T05:49:26.861Z,74.17
2018-04-17T05:51:53.329Z,76.75
2018-04-17T05:54:19.680Z,75.07
2018-04-17T05:56:46.307Z,73.57
2018-04-17T05:59:12.801Z,75.01
2018-04-17T06:01:39.258Z,73.77
2018-04-17T06:04:05.733Z,76.53
2018-04-17T06:06:32.484Z,75.93
2018-04-17T06:08:59.002Z,74.36
2018-04-17T06:11:25.454Z,71.56
2018-04-17T06:13:51.820Z,73.51
2018-04-17T06:16:18.156Z,71.81
2018-04-17T06:18:44.752Z,74.55
2018-04-17T06:21:11.457Z,76.98
2018-04-17T06:23:38.113Z,77.31
2018-04-17T06:26:04.560Z,76.37
2018-04-17T06:28:31.037Z,78.12
2018-04-17T06:30:57.497Z,77.43
2018-04-17T06:33:23.941Z,72.32
2018-04-17T06:35:50.380Z,74.47
2018-04-17T06:38:17.102Z,73.42
2018-04-17T06:40:43.585Z,70.81
2018-04-17T06:43:09.951Z,71.33
2018-04-17T06:45:36.366Z,64.76
2018-04-17T06:48:02.821Z,61.16
2018-04-17T06:50:29.297Z,67.12
2018-04-17T06:52:55.632Z,71.89
2018-04-17T06:55:22.137Z,69.74
2018-04-17T06:57:48.519Z,72.67
2018-04-17T07:00:15.038Z,66.83
2018-04-17T07:02:41.378Z,66.41
2018-04-17T07:05:07.744Z,66.87
2018-04-17T07:07:34.112Z,67.55
2018-04-17T07:10:00.537Z,58.27
2018-04-17T07:12:26.862Z,59.17
2018-04-17T07:14:53.196Z,69.20
2018-04-17T07:17:19.687Z,64.57
2018-04-17T07:19:46.235Z,61.16
2018-04-17T07:22:12.565Z,61.98
2018-04-17T07:24:39.045Z,61.17
2018-04-17T07:27:05.381Z,57.39
2018-04-17T07:29:31.820Z,59.91
2018-04-17T07:31:58.259Z,63.23
2018-04-17T07:34:24.662Z,66.04
2018-04-17T07:36:51.211Z,64.02
2018-04-17T07:39:17.692Z,58.82
2018-04-17T07:41:44.192Z,55.27
2018-04-17T07:44:10.802Z,58.41
2018-04-17T07:46:37.212Z,62.45
2018-04-17T07:49:03.751Z,57.36
2018-04-17T07:51:30.172Z,63.96
2018-04-17T07:53:56.657Z,56.50
2018-04-17T07:56:23.011Z,58.02
2018-04-17T07:58:49.469Z,58.34
2018-04-17T08:01:16.089Z,56.41
2018-04-17T08:03:42.415Z,53.54
2018-04-17T08:06:08.758Z,52.49
2018-04-17T08:08:35.188Z,52.99
2018-04-17T08:11:01.546Z,56.20
2018-04-17T08:13:27.900Z,57.75
2018-04-17T08:15:54.358Z,52.75
2018-04-17T08:18:20.779Z,55.01
2018-04-17T08:20:47.193Z,53.65
2018-04-17T08:23:13.612Z,49.60
2018-04-17T08:25:40.040Z,56.33
2018-04-17T08:28:06.618Z,54.38
2018-04-17T08:30:33.084Z,54.33
2018-04-17T08:32:59.470Z,53.61
2018-04-17T08:35:25.848Z,53.91
2018-04-17T08:37:52.249Z,56.34
2018-04-17T08:40:18.709Z,51.98
2018-04-17T08:42:45.198Z,54.09
2018-04-17T08:45:11.613Z,54.26
2018-04-17T08:47:38.249Z,51.45
2018-04-17T08:50:04.764Z,50.38
2018-04-17T08:52:31.268Z,53.36
2018-04-17T08:54:57.686Z,49.78
2018-04-17T08:57:24.094Z,51.62
2018-04-17T08:59:50.659Z,54.11
2018-04-17T09:02:17.047Z,56.96
2018-04-17T09:04:43.499Z,54.67
2018-04-17T09:07:09.913Z,53.04
2018-04-17T09:09:36.353Z,49.81
2018-04-17T09:12:02.838Z,53.77
2018-04-17T09:14:29.321Z,49.84
2018-04-17T09:16:55.852Z,47.88
2018-04-17T09:19:22.256Z,50.05
2018-04-17T09:21:48.645Z,48.87
2018-04-17T09:24:15.169Z,49.81
2018-04-17T09:26:41.559Z,46.89
2018-04-17T09:29:08.042Z,53.01
2018-04-17T09:31:34.462Z,50.81
2018-04-17T09:34:00.833Z,48.66
2018-04-17T09:36:27.242Z,46.98
2018-04-17T09:38:53.669Z,44.20
2018-04-17T09:41:20.040Z,46.81
2018-04-17T09:43:46.461Z,46.29
2018-04-17T09:46:12.799Z,47.84
2018-04-17T09:48:39.134Z,48.53
2018-04-17T09:51:05.572Z,47.58
2018-04-17T09:53:31.994Z,49.70
2018-04-17T09:55:58.480Z,50.84
2018-04-17T09:58:24.928Z,48.18
2018-04-17T10:00:57.361Z,51.46
2018-04-17T10:03:23.782Z,46.14
2018-04-17T10:05:50.212Z,47.39
2018-04-17T10:08:16.644Z,45.16
2018-04-17T10:10:43.179Z,43.18
2018-04-17T10:13:09.619Z,45.31
2018-04-17T10:15:36.088Z,48.72
2018-04-17T10:18:02.543Z,47.54
2018-04-17T10:20:29.122Z,48.06
2018-04-17T10:22:55.486Z,44.08
2018-04-17T10:25:21.876Z,50.05
2018-04-17T10:27:48.315Z,49.56
2018-04-17T10:30:14.869Z,50.87
2018-04-17T10:32:41.290Z,52.56
2018-04-17T10:35:07.775Z,53.81
2018-04-17T10:37:34.290Z,51.58
2018-04-17T10:40:00.736Z,49.44
2018-04-17T10:42:27.208Z,53.55
2018-04-17T10:44:53.621Z,53.60
2018-04-17T10:47:20.018Z,48.53
2018-04-17T10:49:46.513Z,48.69
2018-04-17T10:52:12.850Z,49.40
2018-04-17T10:54:39.173Z,51.01
2018-04-17T10:57:05.602Z,48.83
2018-04-17T10:59:32.020Z,51.61
2018-04-17T11:01:58.431Z,48.50
2018-04-17T11:04:24.794Z,48.85
2018-04-17T11:06:51.185Z,51.78
2018-04-17T11:09:17.621Z,50.58
2018-04-17T11:11:44.001Z,54.73
2018-04-17T11:14:10.353Z,48.64
2018-04-17T11:16:36.796Z,49.48
2018-04-17T11:19:03.304Z,44.47
2018-04-17T11:21:29.669Z,44.56
2018-04-17T11:23:56.059Z,46.99
2018-04-17T11:26:22.467Z,42.48
2018-04-17T11:28:48.868Z,49.44
2018-04-17T11:31:15.354Z,50.16
2018-04-17T11:33:41.762Z,49.61
2018-04-17T11:36:08.126Z,46.05
2018-04-17T11:38:34.491Z,47.68
2018-04-17T11:41:00.931Z,44.29
2018-04-17T11:43:27.366Z,44.54
2018-04-17T11:45:53.730Z,40.81
2018-04-17T11:48:20.224Z,45.86
2018-04-17T11:50:46.632Z,48.51
2018-04-17T11:53:12.976Z,45.71
2018-04-17T11:55:39.441Z,48.29
2018-04-17T11:58:05.827Z,46.82
2018-04-17T12:00:32.301Z,52.42
2018-04-17T12:02:58.741Z,49.63
2018-04-17T12:05:25.256Z,48.14
2018-04-17T12:07:51.693Z,51.27
2018-04-17T12:10:19.174Z,51.44
2018-04-17T12:12:46.077Z,49.94
2018-04-17T12:15:12.501Z,51.61
2018-04-17T12:17:38.866Z,52.29
2018-04-17T12:20:05.314Z,49.55
2018-04-17T12:22:31.703Z,48.67
2018-04-17T12:24:58.293Z,47.08
2018-04-17T12:27:24.613Z,48.84
2018-04-17T12:29:51.034Z,49.43
2018-04-17T12:32:17.493Z,47.54
2018-04-17T12:34:43.933Z,47.96
2018-04-17T12:37:10.298Z,49.50
2018-04-17T12:39:36.775Z,45.66
2018-04-17T12:42:03.232Z,48.25
2018-04-17T12:44:29.674Z,50.21
2018-04-17T12:46:56.050Z,52.03
2018-04-17T12:49:22.552Z,51.91
2018-04-17T12:51:50.121Z,50.35
2018-04-17T12:54:16.676Z,53.17
2018-04-17T12:56:43.133Z,50.05
2018-04-17T12:59:09.555Z,47.66
2018-04-17T13:01:36.050Z,50.18
2018-04-17T13:04:03.268Z,52.12
2018-04-17T13:06:29.645Z,49.39
2018-04-17T13:08:56.131Z,50.80
2018-04-17T13:11:23.013Z,47.51
2018-04-17T13:13:49.409Z,46.26
2018-04-17T13:16:15.915Z,49.42
2018-04-17T13:18:42.483Z,49.75
2018-04-17T13:21:08.955Z,49.02
2018-04-17T13:23:35.357Z,50.20
2018-04-17T13:26:01.683Z,47.73
2018-04-17T13:28:28.088Z,50.67
2018-04-17T13:30:54.565Z,51.26
2018-04-17T13:33:20.909Z,48.62
2018-04-17T13:35:47.324Z,49.57
2018-04-17T13:38:13.822Z,51.16
2018-04-17T13:40:40.318Z,49.13
2018-04-17T13:43:06.794Z,51.25
2018-04-17T13:45:33.188Z,51.06
2018-04-17T13:47:59.535Z,54.28
2018-04-17T13:50:26.079Z,53.79
2018-04-17T13:52:52.571Z,54.08
2018-04-17T13:55:18.950Z,53.71
2018-04-17T13:57:45.384Z,49.25
2018-04-17T14:00:11.979Z,51.14
2018-04-17T14:02:38.419Z,50.68
2018-04-17T14:05:04.838Z,51.18
2018-04-17T14:07:31.296Z,49.57
2018-04-17T14:09:57.811Z,50.91
2018-04-17T14:12:24.186Z,50.17
2018-04-17T14:14:50.675Z,51.12
2018-04-17T14:17:17.130Z,51.18
2018-04-17T14:19:43.511Z,50.74
2018-04-17T14:22:09.948Z,49.73
2018-04-17T14:24:36.471Z,52.25
2018-04-17T14:27:02.909Z,48.79
2018-04-17T14:29:29.485Z,48.90
2018-04-17T14:31:55.912Z,49.69
2018-04-17T14:34:22.295Z,47.84
2018-04-17T14:36:48.760Z,49.26
2018-04-17T14:39:15.330Z,48.02
2018-04-17T14:41:41.804Z,47.79
2018-04-17T14:44:08.423Z,46.93
2018-04-17T14:46:34.853Z,48.19
2018-04-17T14:49:01.236Z,48.60
2018-04-17T14:51:27.752Z,49.25
2018-04-17T14:53:54.184Z,49.72
2018-04-17T14:56:20.535Z,52.55
2018-04-17T14:58:46.922Z,53.08
2018-04-17T15:01:13.470Z,53.80
2018-04-17T15:03:39.908Z,55.29
2018-04-17T15:06:06.307Z,55.46
2018-04-17T15:08:32.717Z,54.93
2018-04-17T15:10:59.177Z,56.83
2018-04-17T15:13:25.630Z,56.30
2018-04-17T15:15:52.086Z,54.93
2018-04-17T15:18:18.489Z,56.98
2018-04-17T15:20:44.956Z,56.76
2018-04-17T15:23:11.928Z,58.23
2018-04-17T15:25:38.363Z,55.15
2018-04-17T15:28:04.773Z,56.32
2018-04-17T15:30:31.257Z,57.03
2018-04-17T15:32:58.213Z,58.12
2018-04-17T15:35:32.212Z,57.48
2018-04-17T15:37:58.869Z,59.25
2018-04-17T15:40:25.391Z,59.57
2018-04-17T15:42:51.955Z,60.24
2018-04-17T15:45:18.589Z,60.78
2018-04-17T15:47:45.153Z,60.45
2018-04-17T15:50:11.812Z,62.58
2018-04-17T15:52:38.767Z,61.95
2018-04-17T15:55:05.302Z,59.87
2018-04-17T15:57:31.771Z,59.09
2018-04-17T15:59:58.216Z,58.89
2018-04-17T16:02:24.678Z,59.47
2018-04-17T16:04:51.238Z,59.13
2018-04-17T16:07:17.720Z,58.82
2018-04-17T16:09:44.238Z,58.80
2018-04-17T16:12:10.968Z,60.34
2018-04-17T16:14:37.532Z,60.52
2018-04-17T16:17:04.111Z,60.58
2018-04-17T16:19:30.808Z,61.04
2018-04-17T16:21:57.529Z,61.52
2018-04-17T16:24:24.041Z,60.42
2018-04-17T16:26:51.268Z,61.28
2018-04-17T16:29:18.169Z,62.20
2018-04-17T16:31:44.638Z,62.45
2018-04-17T16:34:11.135Z,65.06
2018-04-17T16:36:37.623Z,63.70
2018-04-17T16:39:07.129Z,64.60
2018-04-17T16:41:33.781Z,66.18
2018-04-17T16:44:00.277Z,65.87
2018-04-17T16:46:26.991Z,66.54
2018-04-17T16:48:53.686Z,67.07
2018-04-17T16:51:21.442Z,65.93
2018-04-17T16:53:48.136Z,67.24
2018-04-17T16:56:15.244Z,67.15
2018-04-17T16:58:41.887Z,67.18
2018-04-17T17:01:08.880Z,67.07
2018-04-17T17:03:36.037Z,66.96
2018-04-17T17:06:02.989Z,66.50
2018-04-17T17:08:29.517Z,68.07
2018-04-17T17:10:56.355Z,67.68
2018-04-17T17:13:22.828Z,67.43
2018-04-17T17:15:49.234Z,66.89
2018-04-17T17:18:15.951Z,67.55
2018-04-17T17:20:42.567Z,67.17
2018-04-17T17:23:09.070Z,68.22
2018-04-17T17:25:35.625Z,66.98
2018-04-17T17:28:02.032Z,67.82
2018-04-17T17:30:28.571Z,66.94
2018-04-17T17:32:55.129Z,68.55
2018-04-17T17:35:21.552Z,67.79
2018-04-17T17:37:48.116Z,69.25
2018-04-17T17:40:14.604Z,67.93
2018-04-17T17:42:41.777Z,68.31
2018-04-17T17:45:08.531Z,68.89
2018-04-17T17:47:35.042Z,70.16
2018-04-17T17:50:01.682Z,70.58
2018-04-17T17:52:28.336Z,72.10
2018-04-17T17:54:54.754Z,71.41
2018-04-17T17:57:21.100Z,73.26
2018-04-17T17:59:47.575Z,73.50
2018-04-17T18:02:14.096Z,73.77
2018-04-17T18:04:40.473Z,74.40
2018-04-17T18:07:06.909Z,75.39
2018-04-17T18:09:33.458Z,75.86
2018-04-17T18:11:59.939Z,75.43
2018-04-17T18:14:26.591Z,75.51
2018-04-17T18:16:53.316Z,75.62
2018-04-17T18:19:19.821Z,76.45
2018-04-17T18:21:46.321Z,77.29
2018-04-17T18:24:12.815Z,76.99
2018-04-17T18:26:39.240Z,77.56
2018-04-17T18:29:05.597Z,78.45
2018-04-17T18:31:32.066Z,77.80
2018-04-17T18:33:58.518Z,78.38
2018-04-17T18:36:25.144Z,77.97
2018-04-17T18:38:51.679Z,78.43
2018-04-17T18:41:18.191Z,78.17
2018-04-17T18:43:45.179Z,78.51
2018-04-17T18:46:11.779Z,78.99
2018-04-17T18:48:38.305Z,80.27
2018-04-17T18:51:04.831Z,80.24
2018-04-17T18:53:31.850Z,79.46
2018-04-17T18:55:58.763Z,80.58
2018-04-17T18:58:25.380Z,80.40
2018-04-17T19:00:52.099Z,80.38
2018-04-17T19:03:18.647Z,80.51
2018-04-17T19:05:45.214Z,80.99
2018-04-17T19:08:11.738Z,81.53
2018-04-17T19:10:38.325Z,82.08
2018-04-17T19:13:04.925Z,82.37
2018-04-17T19:15:31.549Z,82.15
2018-04-17T19:17:58.036Z,82.64
2018-04-17T19:20:24.698Z,82.65
2018-04-17T19:22:51.215Z,82.66
2018-04-17T19:25:17.630Z,82.55
2018-04-17T19:27:44.128Z,83.25
2018-04-17T19:30:11.135Z,82.65
2018-04-17T19:32:37.563Z,83.71
2018-04-17T19:35:03.977Z,84.51
2018-04-17T19:37:30.424Z,84.44
2018-04-17T19:39:57.731Z,84.48
2018-04-17T19:42:24.195Z,84.62
2018-04-17T19:44:50.704Z,85.37
2018-04-17T19:47:17.219Z,85.70
2018-04-17T19:49:43.817Z,85.25
2018-04-17T19:52:10.270Z,84.48
2018-04-17T19:54:36.670Z,86.06
2018-04-17T19:57:03.143Z,85.46
2018-04-17T19:59:29.557Z,86.74
2018-04-17T20:01:56.069Z,86.43
2018-04-17T20:04:22.449Z,86.80
2018-04-17T20:06:49.000Z,85.98
2018-04-17T20:09:15.453Z,87.07
2018-04-17T20:11:41.984Z,87.70
2018-04-17T20:14:08.517Z,86.18
2018-04-17T20:16:34.960Z,87.46
2018-04-17T20:19:01.400Z,86.91
2018-04-17T20:21:27.962Z,87.80
2018-04-17T20:23:54.366Z,88.12
2018-04-17T20:26:20.872Z,88.54
2018-04-17T20:28:47.423Z,88.62
2018-04-17T20:31:14.467Z,88.87
2018-04-17T20:33:42.872Z,88.61
2018-04-17T20:36:12.550Z,88.89
2018-04-17T20:38:39.591Z,89.52
2018-04-17T20:41:06.280Z,89.40
2018-04-17T20:43:32.862Z,89.85
2018-04-17T20:45:59.318Z,89.96
2018-04-17T20:48:26.144Z,90.27
2018-04-17T20:50:52.871Z,89.59
2018-04-17T20:53:19.412Z,90.49
2018-04-17T20:55:45.864Z,90.07
2018-04-17T20:58:12.595Z,89.79
2018-04-17T21:00:39.096Z,90.49
2018-04-17T21:03:05.512Z,90.30
2018-04-17T21:05:31.972Z,90.60
2018-04-17T21:07:58.441Z,90.80
2018-04-17T21:10:24.880Z,91.05
2018-04-17T21:12:51.236Z,91.33
2018-04-17T21:15:17.668Z,91.13
2018-04-17T21:17:44.004Z,89.98
2018-04-17T21:20:10.368Z,91.13
2018-04-17T21:22:36.825Z,91.24
2018-04-17T21:25:03.250Z,91.86
2018-04-17T21:27:29.866Z,91.53
2018-04-17T21:29:56.409Z,91.61
2018-04-17T21:32:22.747Z,91.61
2018-04-17T21:34:49.313Z,92.40
2018-04-17T21:37:15.702Z,92.08
2018-04-17T21:39:42.067Z,90.95
2018-04-17T21:42:08.524Z,91.43
2018-04-17T21:44:34.869Z,91.60
2018-04-17T21:47:01.920Z,91.02
2018-04-17T21:49:28.370Z,91.39
2018-04-17T21:51:54.859Z,92.17
2018-04-17T21:54:21.233Z,92.46
2018-04-17T21:56:47.855Z,92.24
2018-04-17T21:59:14.303Z,92.92
2018-04-17T22:01:40.624Z,93.29
2018-04-17T22:04:07.039Z,92.71
2018-04-17T22:06:33.376Z,92.35
2018-04-17T22:08:59.694Z,92.83
2018-04-17T22:11:26.246Z,91.78
2018-04-17T22:13:52.690Z,92.31
2018-04-17T22:16:19.330Z,92.13
2018-04-17T22:18:45.783Z,93.15
2018-04-17T22:21:12.397Z,92.26
2018-04-17T22:23:38.887Z,93.40
2018-04-17T22:26:05.615Z,93.17
2018-04-17T22:28:31.927Z,93.31
2018-04-17T22:30:58.620Z,93.47
2018-04-17T22:33:25.391Z,93.60
2018-04-17T22:35:51.978Z,93.58
2018-04-17T22:38:18.432Z,93.67
2018-04-17T22:40:44.912Z,93.38
2018-04-17T22:43:11.331Z,93.56
2018-04-17T22:45:37.797Z,94.13
2018-04-17T22:48:04.384Z,93.99
2018-04-17T22:50:31.181Z,94.08
2018-04-17T22:52:57.611Z,93.85
2018-04-17T22:55:23.977Z,93.54
2018-04-17T22:57:50.414Z,93.72
2018-04-17T23:00:16.869Z,94.42
2018-04-17T23:02:43.315Z,94.05
2018-04-17T23:05:09.753Z,95.25
2018-04-17T23:07:36.102Z,93.96
2018-04-17T23:10:03.476Z,93.91
2018-04-17T23:12:29.750Z,94.73
2018-04-17T23:14:56.172Z,94.88
2018-04-17T23:17:22.505Z,94.68
2018-04-17T23:19:48.865Z,94.53
2018-04-17T23:22:15.343Z,94.51
2018-04-17T23:24:41.660Z,94.80
2018-04-17T23:27:08.017Z,94.39
2018-04-17T23:29:34.491Z,94.56
2018-04-17T23:32:00.905Z,95.14
2018-04-17T23:34:27.235Z,96.05
2018-04-17T23:36:53.586Z,95.79
2018-04-17T23:39:19.868Z,94.94
2018-04-17T23:41:46.307Z,94.89
2018-04-17T23:44:12.682Z,94.96
2018-04-17T23:46:39.026Z,95.16
2018-04-17T23:49:05.329Z,94.85
2018-04-17T23:51:31.959Z,95.63
2018-04-17T23:53:58.342Z,94.84
2018-04-17T23:56:24.702Z,95.44
2018-04-17T23:58:51.065Z,96.26
